• Join FlightAware (Why Join?)
  • Login
  • US Flag 
10:38PM EST


 

Airport Tracker/Info


-or-


 

Live Flight TrackerFlight Track Log ✈ DAL6066 ✈ 05-Jul-2013 ✈ KPHL - KJFK

Flight Track Log - Related Links

Times and Time Zones

All times are in EDT time to prevent confusion due to time zone crossing. See the DAL6066 flight status page for this flight to view local times or setup timezone preferences in your user account.

Time Position Orientation Groundspeed Altitude Reporting Facility
EDT Latitude Longitude Course Direction KTS MPH feet Rate Location/Type
09:44AM 39.8667 -75.2667 75° East 150 173 700  Level Philadelphia TRACON
09:45AM 39.8333 -75.3167 229° Southwest 194 223 3,000 2,520 Climbing Philadelphia TRACON
09:46AM 39.7833 -75.3500 207° Southwest 195 224 5,800 2,280 Climbing Philadelphia TRACON
09:47AM 39.7500 -75.3167 142° Southeast 271 312 7,700 1,980 Climbing Philadelphia TRACON
09:48AM 39.7926 -74.7464 105° East  Level FlightAware Approximate
09:48AM 39.7500 -75.2167 90° East 296 341 9,800  Level Philadelphia TRACON
09:49AM 39.7986 -74.6237 75° East  Level FlightAware Approximate
09:49AM 39.7500 -75.1000 90° East 319 367 11,600  Level Philadelphia TRACON
09:51AM 39.7775 -74.8739 81° East 379 436 12,000 120 Climbing New York Center
09:52AM 39.7928 -74.7317 82° East 389 448 12,000  Level New York Center
09:53AM 39.8058 -74.5864 83° East 395 455 12,000  Level New York Center
09:54AM 39.8167 -74.4436 84° East 395 455 12,000  Level New York Center
09:55AM 39.8517 -74.3239 69° East 395 455 12,000  Level New York Center
09:56AM 39.9039 -74.1803 65° Northeast 395 455 12,000 -540 Level New York Center
09:57AM 39.9469 -74.0581 65° Northeast 385 443 11,000 -540 Descending New York Center
09:58AM 39.9853 -73.9514 65° Northeast 338 389 11,000  Level New York Center
09:59AM 40.0475 -73.8836 40° Northeast 315 362 11,000 -300 Level New York Center
10:00AM 40.1139 -73.8161 38° Northeast 308 354 10,400 -900 Descending New York Center
10:01AM 40.1847 -73.7406 39° Northeast 302 348 9,200 -1,260 Descending New York Center
10:02AM 40.2333 -73.7000 32° Northeast 289 333 8,200 -1,500 Descending New York TRACON
10:02AM 40.3000 -73.6500 30° Northeast 283 326 6,700 -1,740 Descending New York TRACON
10:03AM 40.3667 -73.6000 30° Northeast 269 310 5,000 -1,380 Descending New York TRACON
10:04AM 40.4333 -73.5667 21° North 263 303 4,000 -540 Descending New York TRACON
10:05AM 40.5000 -73.5167 30° Northeast 275 316 4,000  Level New York TRACON
10:06AM 40.5667 -73.4667 30° Northeast 278 320 4,000 -480 Level New York TRACON
10:07AM 40.6333 -73.5000 339° North 245 282 3,200 -540 Descending New York TRACON
10:08AM 40.6833 -73.5167 346° North 246 283 3,000 -240 Descending New York TRACON
10:09AM 40.7500 -73.5667 330° Northwest 230 265 2,800 -540 Descending New York TRACON
10:10AM 40.7667 -73.6333 288° West 230 265 2,000 -840 Descending New York TRACON